createdAt,value
2022-10-14T00:09:18.863Z,15.80
2022-10-14T00:11:44.774Z,15.80
2022-10-14T00:14:10.718Z,15.80
2022-10-14T00:16:36.669Z,15.80
2022-10-14T00:19:03.044Z,15.70
2022-10-14T00:21:28.938Z,15.50
2022-10-14T00:23:54.855Z,15.20
2022-10-14T00:26:20.775Z,15.30
2022-10-14T00:28:46.820Z,15.40
2022-10-14T00:31:12.874Z,15.50
2022-10-14T00:33:39.804Z,15.00
2022-10-14T00:36:06.689Z,15.20
2022-10-14T00:38:32.601Z,15.30
2022-10-14T00:40:58.497Z,15.40
2022-10-14T00:43:25.130Z,15.30
2022-10-14T00:45:51.978Z,14.90
2022-10-14T00:48:17.923Z,14.90
2022-10-14T00:50:43.837Z,15.00
2022-10-14T00:53:09.811Z,14.80
2022-10-14T00:55:36.454Z,14.90
2022-10-14T00:58:02.355Z,15.00
2022-10-14T01:00:28.355Z,15.00
2022-10-14T01:02:54.675Z,15.10
2022-10-14T01:05:20.653Z,14.80
2022-10-14T01:07:46.558Z,14.90
2022-10-14T01:10:14.775Z,14.80
2022-10-14T01:12:41.424Z,14.70
2022-10-14T01:15:07.350Z,14.70
2022-10-14T01:17:33.274Z,14.70
2022-10-14T01:20:00.032Z,14.70
2022-10-14T01:22:27.100Z,14.60
2022-10-14T01:24:53.209Z,14.70
2022-10-14T01:27:20.062Z,14.70
2022-10-14T01:29:45.981Z,14.50
2022-10-14T01:32:11.873Z,14.50
2022-10-14T01:34:37.852Z,14.50
2022-10-14T01:37:03.766Z,14.30
2022-10-14T01:39:29.710Z,14.30
2022-10-14T01:41:55.634Z,14.30
2022-10-14T01:44:23.318Z,14.20
2022-10-14T01:46:49.245Z,14.10
2022-10-14T01:49:17.680Z,13.70
2022-10-14T01:51:47.500Z,13.90
2022-10-14T01:54:14.286Z,14.00
2022-10-14T01:56:40.829Z,14.00
2022-10-14T01:59:07.732Z,13.80
2022-10-14T02:01:34.269Z,14.00
2022-10-14T02:04:00.245Z,14.10
2022-10-14T02:06:26.166Z,14.10
2022-10-14T02:08:52.949Z,14.20
2022-10-14T02:11:19.671Z,14.20
2022-10-14T02:13:45.609Z,14.20
2022-10-14T02:16:11.541Z,14.10
2022-10-14T02:18:37.488Z,14.00
2022-10-14T02:21:04.156Z,14.10
2022-10-14T02:23:30.081Z,14.10
2022-10-14T02:25:55.988Z,13.90
2022-10-14T02:28:21.992Z,13.40
2022-10-14T02:30:47.962Z,13.20
2022-10-14T02:33:14.833Z,13.30
2022-10-14T02:35:40.760Z,13.50
2022-10-14T02:38:07.524Z,13.50
2022-10-14T02:40:34.583Z,13.60
2022-10-14T02:43:00.487Z,13.60
2022-10-14T02:45:27.731Z,13.60
2022-10-14T02:47:55.436Z,13.60
2022-10-14T02:50:21.648Z,13.70
2022-10-14T02:52:47.686Z,13.50
2022-10-14T02:55:13.971Z,13.60
2022-10-14T03:00:20.695Z,13.70
2022-10-14T05:10:51.645Z,12.30
2022-10-14T05:13:18.306Z,12.00
2022-10-14T05:15:51.693Z,12.30
2022-10-14T05:18:18.057Z,12.30
2022-10-14T05:20:44.033Z,12.40
2022-10-14T05:23:10.470Z,12.40
2022-10-14T05:25:36.395Z,12.50
2022-10-14T05:28:02.371Z,12.10
2022-10-14T05:30:34.387Z,12.20
2022-10-14T05:33:00.732Z,12.40
2022-10-14T05:35:53.519Z,12.50
2022-10-14T05:38:12.637Z,12.60
2022-10-14T05:40:38.578Z,12.60
2022-10-14T05:43:05.385Z,12.50
2022-10-14T05:45:31.326Z,12.50
2022-10-14T05:47:57.307Z,12.70
2022-10-14T05:50:24.681Z,12.60
2022-10-14T05:52:50.639Z,12.60
2022-10-14T05:55:16.570Z,12.50
2022-10-14T06:00:26.921Z,12.50
2022-10-14T06:02:52.947Z,12.10
2022-10-14T06:05:21.205Z,12.40
2022-10-14T06:07:47.175Z,12.50
2022-10-14T06:10:13.138Z,12.60
2022-10-14T06:12:39.181Z,12.70
2022-10-14T06:15:05.162Z,12.90
2022-10-14T06:17:31.111Z,12.80
2022-10-14T06:19:57.948Z,12.90
2022-10-14T06:22:24.280Z,13.00
2022-10-14T06:24:50.408Z,13.20
2022-10-14T06:27:16.998Z,13.20
2022-10-14T06:29:42.967Z,12.90
2022-10-14T06:32:08.928Z,13.10
2022-10-14T06:34:34.920Z,13.30
2022-10-14T06:37:02.445Z,13.40
2022-10-14T06:39:29.070Z,13.40
2022-10-14T06:41:55.022Z,13.60
2022-10-14T06:44:20.974Z,13.70
2022-10-14T06:46:46.914Z,13.70
2022-10-14T06:49:12.847Z,13.90
2022-10-14T06:51:38.813Z,14.00
2022-10-14T06:54:05.512Z,14.20
2022-10-14T06:56:31.473Z,14.30
2022-10-14T06:58:57.402Z,14.20
2022-10-14T07:01:23.422Z,14.00
2022-10-14T07:03:52.849Z,13.70
2022-10-14T07:06:21.838Z,13.70
2022-10-14T07:08:47.762Z,14.00
2022-10-14T07:11:14.521Z,14.00
2022-10-14T07:13:40.489Z,14.30
2022-10-14T07:16:06.490Z,14.60
2022-10-14T07:18:32.480Z,14.70
2022-10-14T07:20:59.086Z,14.90
2022-10-14T07:23:25.748Z,15.20
2022-10-14T07:25:51.719Z,15.20
2022-10-14T07:28:18.343Z,15.20
2022-10-14T07:30:45.223Z,15.40
2022-10-14T07:33:11.161Z,15.50
2022-10-14T07:35:37.118Z,15.30
2022-10-14T07:38:03.128Z,15.10
2022-10-14T07:40:30.446Z,15.40
2022-10-14T07:42:58.072Z,15.70
2022-10-14T07:45:24.301Z,15.70
2022-10-14T07:47:50.634Z,15.80
2022-10-14T07:50:16.957Z,15.70
2022-10-14T07:52:43.248Z,15.80
2022-10-14T07:55:09.530Z,15.80
2022-10-14T07:57:35.769Z,15.80
2022-10-14T10:08:01.743Z,19.90
2022-10-14T10:10:28.340Z,19.90
2022-10-14T10:12:54.957Z,19.90
2022-10-14T10:15:21.798Z,20.10
2022-10-14T10:17:48.466Z,20.30
2022-10-14T10:20:15.521Z,20.00
2022-10-14T10:22:42.149Z,20.50
2022-10-14T10:25:08.749Z,20.30
2022-10-14T10:27:35.360Z,20.50
2022-10-14T10:30:01.978Z,20.50
2022-10-14T10:32:28.574Z,20.20
2022-10-14T10:34:55.183Z,20.00
2022-10-14T10:37:21.988Z,20.10
2022-10-14T10:39:48.796Z,20.10
2022-10-14T10:42:15.418Z,20.70
2022-10-14T10:44:42.014Z,21.00
2022-10-14T10:47:08.636Z,20.90
2022-10-14T10:49:35.389Z,20.70
2022-10-14T10:52:02.007Z,20.40
2022-10-14T10:54:28.615Z,20.30
2022-10-14T10:56:55.211Z,19.30
2022-10-14T10:59:21.838Z,19.40
2022-10-14T11:01:48.576Z,20.00
2022-10-14T11:04:15.284Z,20.20
2022-10-14T11:06:42.412Z,20.00
2022-10-14T11:09:09.019Z,19.90
2022-10-14T11:11:35.823Z,19.70
2022-10-14T11:14:02.825Z,19.60
2022-10-14T11:16:29.719Z,19.80
2022-10-14T11:18:56.421Z,19.80
2022-10-14T11:21:23.050Z,19.70
2022-10-14T11:23:49.660Z,19.60
2022-10-14T11:26:16.364Z,19.90
2022-10-14T11:28:43.067Z,20.20
2022-10-14T11:31:09.784Z,20.30
2022-10-14T11:33:39.753Z,20.20
2022-10-14T11:36:06.814Z,20.20
2022-10-14T11:38:36.372Z,19.70
2022-10-14T11:41:02.980Z,19.70
2022-10-14T11:43:29.564Z,19.80
2022-10-14T11:45:56.183Z,20.10
2022-10-14T11:48:22.771Z,20.10
2022-10-14T11:50:49.396Z,20.30
2022-10-14T11:53:16.007Z,19.90
2022-10-14T11:55:42.655Z,19.70
2022-10-14T11:58:09.238Z,19.50
2022-10-14T12:00:35.862Z,19.70
2022-10-14T12:03:02.550Z,19.80
2022-10-14T12:05:29.203Z,19.80
2022-10-14T12:07:55.802Z,19.80
2022-10-14T12:10:22.465Z,19.90
2022-10-14T12:12:49.063Z,19.80
2022-10-14T12:15:15.724Z,19.60
2022-10-14T12:17:42.352Z,19.80
2022-10-14T12:20:08.964Z,20.00
2022-10-14T12:22:35.575Z,20.10
2022-10-14T12:25:02.193Z,20.40
2022-10-14T12:27:28.854Z,20.30
2022-10-14T12:29:55.522Z,20.60
2022-10-14T12:32:22.453Z,21.10
2022-10-14T12:34:49.385Z,21.50
2022-10-14T12:37:15.988Z,21.40
2022-10-14T12:39:42.594Z,21.30
2022-10-14T12:42:09.202Z,21.60
2022-10-14T12:44:35.848Z,22.00
2022-10-14T12:47:02.478Z,21.90
2022-10-14T12:49:29.087Z,21.70
2022-10-14T12:51:55.719Z,21.70
2022-10-14T12:54:22.331Z,20.90
2022-10-14T12:56:48.915Z,20.90
2022-10-14T13:01:43.051Z,20.90
2022-10-14T13:04:10.130Z,21.30
2022-10-14T13:06:36.842Z,21.60
2022-10-14T13:09:03.451Z,21.70
2022-10-14T13:11:30.047Z,21.50
2022-10-14T13:13:56.819Z,21.60
2022-10-14T13:16:23.424Z,22.10
2022-10-14T13:18:50.039Z,21.80
2022-10-14T13:21:16.658Z,22.20
2022-10-14T13:23:43.251Z,21.10
2022-10-14T13:26:09.861Z,20.70
2022-10-14T13:28:36.549Z,21.00
2022-10-14T13:31:03.226Z,21.00
2022-10-14T13:33:29.914Z,20.70
2022-10-14T13:35:56.586Z,20.80
2022-10-14T13:38:23.187Z,20.80
2022-10-14T13:40:49.791Z,20.60
2022-10-14T13:43:16.418Z,20.10
2022-10-14T13:45:43.055Z,20.20
2022-10-14T13:48:09.699Z,20.20
2022-10-14T13:50:36.320Z,20.50
2022-10-14T13:53:02.912Z,20.40
2022-10-14T13:55:29.526Z,20.70
2022-10-14T13:58:12.021Z,20.80
2022-10-14T14:00:41.585Z,20.90
2022-10-14T14:03:08.772Z,20.70
2022-10-14T14:05:35.452Z,20.40
2022-10-14T14:11:14.457Z,20.90
2022-10-14T14:13:35.269Z,20.90
2022-10-14T14:16:01.963Z,21.00
2022-10-14T14:18:34.009Z,21.10
2022-10-14T14:21:09.989Z,20.90
2022-10-14T14:23:36.624Z,20.70
2022-10-14T14:26:19.001Z,20.70
2022-10-14T14:28:46.293Z,20.90
2022-10-14T14:31:12.933Z,21.10
2022-10-14T14:33:39.558Z,21.40
2022-10-14T14:36:06.161Z,20.80
2022-10-14T14:38:32.766Z,20.20
2022-10-14T14:40:59.400Z,20.30
2022-10-14T14:43:27.137Z,20.50
2022-10-14T14:45:55.569Z,20.30
2022-10-14T14:48:22.197Z,20.30
2022-10-14T14:50:48.814Z,20.00
2022-10-14T14:53:15.409Z,19.80
2022-10-14T14:55:42.033Z,19.90
2022-10-14T14:58:08.684Z,19.80
2022-10-14T15:00:35.286Z,19.80
2022-10-14T15:03:01.921Z,19.70
2022-10-14T15:05:28.519Z,19.80
2022-10-14T15:07:55.131Z,20.10
2022-10-14T15:10:21.773Z,20.00
2022-10-14T15:12:48.406Z,19.90
2022-10-14T15:15:15.035Z,19.70
2022-10-14T15:17:41.624Z,19.80
2022-10-14T15:20:08.271Z,19.60
2022-10-14T15:22:35.374Z,19.70
2022-10-14T15:25:02.246Z,19.90
2022-10-14T15:27:28.859Z,19.80
2022-10-14T15:29:55.462Z,19.90
2022-10-14T15:32:22.286Z,20.00
2022-10-14T15:34:49.136Z,20.10
2022-10-14T15:37:15.747Z,19.90
2022-10-14T15:39:42.370Z,19.80
2022-10-14T15:42:08.963Z,19.80
2022-10-14T15:44:35.620Z,19.80
2022-10-14T15:47:02.216Z,19.90
2022-10-14T15:49:28.831Z,19.80
2022-10-14T15:51:55.433Z,19.60
2022-10-14T15:54:22.051Z,19.50
2022-10-14T15:56:48.677Z,19.50
2022-10-14T15:59:15.360Z,19.20
2022-10-14T16:01:49.704Z,19.00
2022-10-14T16:04:16.331Z,19.20
2022-10-14T16:06:44.189Z,19.20
2022-10-14T16:09:10.787Z,19.10
2022-10-14T16:11:37.390Z,19.10
2022-10-14T16:14:05.032Z,19.00
2022-10-14T16:16:31.621Z,18.90
2022-10-14T16:18:58.445Z,18.50
2022-10-14T16:21:25.060Z,18.50
2022-10-14T16:23:51.695Z,18.70
2022-10-14T16:26:18.337Z,18.70
2022-10-14T16:28:44.970Z,18.70
2022-10-14T16:31:11.607Z,18.70
2022-10-14T16:33:40.387Z,18.70
2022-10-14T16:36:09.820Z,18.60
2022-10-14T16:38:36.409Z,18.60
2022-10-14T16:41:03.027Z,18.30
2022-10-14T16:43:29.645Z,18.30
2022-10-14T16:45:56.267Z,18.30
2022-10-14T16:48:22.900Z,18.30
2022-10-14T16:50:49.532Z,18.20
2022-10-14T16:53:16.129Z,18.20
2022-10-14T16:55:42.739Z,18.10
2022-10-14T16:58:09.373Z,18.00
2022-10-14T17:00:35.963Z,17.90
2022-10-14T17:03:02.645Z,17.80
2022-10-14T17:05:29.265Z,17.70
2022-10-14T17:07:55.852Z,17.60
2022-10-14T17:10:22.478Z,17.10
2022-10-14T17:12:49.067Z,16.70
2022-10-14T17:15:15.687Z,16.80
2022-10-14T17:17:42.307Z,16.70
2022-10-14T17:20:08.906Z,16.70
2022-10-14T17:22:35.553Z,17.00
2022-10-14T17:25:02.163Z,17.10
2022-10-14T17:27:28.778Z,17.10
2022-10-14T17:29:58.185Z,17.10
2022-10-14T17:32:25.215Z,17.10
2022-10-14T17:34:53.481Z,16.60
2022-10-14T17:37:20.320Z,16.50
2022-10-14T17:39:46.938Z,16.60
2022-10-14T17:42:13.599Z,16.80
2022-10-14T17:44:43.794Z,16.80
2022-10-14T17:47:10.670Z,16.90
2022-10-14T17:49:37.256Z,16.90
2022-10-14T17:52:03.906Z,16.80
2022-10-14T17:54:30.496Z,16.60
2022-10-14T17:56:57.117Z,15.90
2022-10-14T17:59:23.759Z,15.80
2022-10-14T18:02:02.096Z,16.00
2022-10-14T18:04:29.911Z,15.90
2022-10-14T18:06:56.503Z,16.30
2022-10-14T18:09:23.134Z,16.50
2022-10-14T18:12:08.086Z,16.50
2022-10-14T18:14:35.174Z,16.40
2022-10-14T18:17:01.896Z,16.40
2022-10-14T18:19:28.525Z,16.50
2022-10-14T18:21:55.143Z,16.40
2022-10-14T18:24:21.743Z,16.40
2022-10-14T18:26:48.346Z,16.30
2022-10-14T18:29:14.966Z,16.30
2022-10-14T18:31:41.688Z,16.40
2022-10-14T18:34:08.332Z,16.40
2022-10-14T18:36:34.966Z,16.40
2022-10-14T18:39:01.589Z,16.30
2022-10-14T18:41:28.191Z,16.30
2022-10-14T18:43:54.788Z,16.40
2022-10-14T18:46:21.407Z,16.20
2022-10-14T18:48:47.995Z,16.20
2022-10-14T18:51:14.608Z,15.90
2022-10-14T18:53:41.241Z,15.90
2022-10-14T18:56:07.850Z,16.20
2022-10-14T18:58:34.453Z,16.40
2022-10-14T19:01:01.120Z,16.50
2022-10-14T19:03:27.775Z,16.60
2022-10-14T19:05:54.387Z,16.70
2022-10-14T19:08:21.005Z,16.60
2022-10-14T19:10:47.628Z,16.40
2022-10-14T19:13:14.256Z,15.80
2022-10-14T19:15:44.529Z,15.50
2022-10-14T19:18:12.599Z,15.60
2022-10-14T19:20:39.189Z,15.80
2022-10-14T19:23:05.794Z,16.00
2022-10-14T19:25:32.408Z,16.00
2022-10-14T19:27:59.040Z,16.00
2022-10-14T19:30:25.651Z,16.00
2022-10-14T19:32:52.251Z,16.20
2022-10-14T19:37:50.359Z,16.30
2022-10-14T19:40:19.882Z,16.20
2022-10-14T19:42:49.511Z,16.10
2022-10-14T19:45:16.102Z,16.20
2022-10-14T19:47:42.735Z,16.20
2022-10-14T19:50:09.638Z,16.20
2022-10-14T19:52:36.286Z,15.70
2022-10-14T19:55:02.884Z,15.90
2022-10-14T19:57:29.492Z,15.80
2022-10-14T19:59:56.135Z,15.70
2022-10-14T20:02:22.762Z,15.60
2022-10-14T20:04:49.384Z,15.60
2022-10-14T20:07:15.972Z,15.40
2022-10-14T20:09:42.607Z,15.50
2022-10-14T20:12:09.210Z,15.70
2022-10-14T20:14:35.833Z,15.90
2022-10-14T20:17:02.440Z,15.90
2022-10-14T20:19:29.030Z,15.90
2022-10-14T20:21:55.661Z,15.70
2022-10-14T20:24:22.282Z,15.80
2022-10-14T20:26:48.896Z,15.80
2022-10-14T20:29:15.527Z,15.70
2022-10-14T20:31:42.234Z,15.30
2022-10-14T20:34:10.354Z,15.40
2022-10-14T20:36:38.032Z,15.60
2022-10-14T20:39:04.630Z,15.80
2022-10-14T20:41:31.268Z,15.90
2022-10-14T20:43:57.904Z,16.00
2022-10-14T20:46:24.634Z,16.10
2022-10-14T20:48:51.460Z,16.10
2022-10-14T20:51:18.094Z,16.10
2022-10-14T20:53:44.713Z,16.10
2022-10-14T20:56:11.307Z,16.10
2022-10-14T20:58:37.930Z,16.00
2022-10-14T21:01:04.621Z,15.90
2022-10-14T21:03:31.272Z,15.80
2022-10-14T21:05:57.866Z,15.30
2022-10-14T21:08:24.475Z,15.50
2022-10-14T21:10:51.089Z,15.20
2022-10-14T21:13:17.681Z,15.40
2022-10-14T21:15:44.325Z,15.20
2022-10-14T21:18:10.917Z,15.40
2022-10-14T21:20:37.541Z,15.60
2022-10-14T21:23:04.157Z,15.50
2022-10-14T21:25:30.781Z,15.20
2022-10-14T21:27:57.429Z,15.10
2022-10-14T21:30:24.019Z,15.30
2022-10-14T21:32:50.622Z,15.30
2022-10-14T21:35:17.253Z,15.40
2022-10-14T21:37:43.847Z,15.40
2022-10-14T21:40:10.468Z,15.50
2022-10-14T21:42:37.057Z,15.50
2022-10-14T21:45:03.700Z,15.50
2022-10-14T21:47:30.330Z,15.50
2022-10-14T21:49:56.948Z,15.50
2022-10-14T21:52:23.801Z,15.40
2022-10-14T21:54:50.643Z,15.50
2022-10-14T21:57:17.247Z,15.50
2022-10-14T21:59:44.009Z,15.50
2022-10-14T22:02:10.669Z,15.30
2022-10-14T22:04:38.399Z,15.00
2022-10-14T22:07:05.119Z,15.00
2022-10-14T22:09:31.748Z,15.20
2022-10-14T22:11:58.385Z,15.30
2022-10-14T22:14:25.010Z,15.20
2022-10-14T22:16:51.643Z,15.10
2022-10-14T22:19:18.235Z,15.20
2022-10-14T22:21:44.828Z,15.30
2022-10-14T22:24:11.481Z,15.40
2022-10-14T22:26:38.094Z,15.40
2022-10-14T22:29:04.773Z,15.40
2022-10-14T22:31:31.420Z,15.30
2022-10-14T22:33:58.039Z,14.90
2022-10-14T22:36:24.637Z,14.90
2022-10-14T22:38:51.271Z,14.80
2022-10-14T22:41:17.871Z,14.60
2022-10-14T22:43:44.462Z,14.60
2022-10-14T22:46:11.086Z,14.80
2022-10-14T22:48:37.705Z,14.90
2022-10-14T22:51:04.350Z,15.10
2022-10-14T22:53:30.941Z,15.30
2022-10-14T22:55:57.522Z,15.30
2022-10-14T22:58:24.136Z,15.30
2022-10-14T23:00:50.732Z,15.30
2022-10-14T23:03:17.376Z,15.40
2022-10-14T23:05:44.043Z,15.40
2022-10-14T23:08:10.671Z,15.40
2022-10-14T23:10:37.310Z,15.30
2022-10-14T23:13:03.952Z,15.00
2022-10-14T23:15:30.565Z,15.10
2022-10-14T23:17:57.150Z,15.20
2022-10-14T23:20:23.760Z,15.20
2022-10-14T23:22:50.384Z,15.20
2022-10-14T23:25:17.051Z,15.00
2022-10-14T23:27:43.705Z,14.90
2022-10-14T23:30:10.332Z,15.00
2022-10-14T23:32:36.947Z,14.90
2022-10-14T23:35:03.531Z,15.00
2022-10-14T23:37:30.144Z,15.10
2022-10-14T23:39:56.731Z,15.00
2022-10-14T23:42:23.336Z,14.80
2022-10-14T23:44:49.946Z,14.80
2022-10-14T23:47:16.543Z,14.80
2022-10-14T23:49:43.126Z,14.90
2022-10-14T23:52:09.726Z,14.70
2022-10-14T23:54:36.324Z,14.20
2022-10-14T23:57:02.959Z,14.40
2022-10-14T23:59:29.544Z,14.40
